WZZ6MS LHBP-LGZA
Flight info
| Callsign | WZZ6MS |
|---|---|
| Flight time | 1h 35m |
| Altitude | 33000 |
| Route | FAHAZ DCT KEROP DCT TADAM DCT AKIKA DCT LIMJA DCT PITAS UN732 KRK UT321 ASTUS |
| Aircraft | A321/M-SDE1E2E3FGIJ1J4RWXY/LB1 |
Departure
| Time | 2026-04-23 13:39 |
|---|---|
| Airport | Budapest Liszt Ferenc International Airport (LHBP) |
Arrival
| Time | 2026-04-23 15:15 |
|---|---|
| Airport | Zakynthos International Airport Dionysios Solomos (LGZA) |
| Time | Latitude | Longitude | Altitude | Speed | Heading |
|---|---|---|---|---|---|
| 2026-04-23 13:15 | 47.43538 | 19.26435 | 456 ft | 0 kts | 222° |
| 2026-04-23 13:31 | 47.43551 | 19.26453 | 456 ft | 4 kts | 225° |
| 2026-04-23 13:32 | 47.43564 | 19.26484 | 455 ft | 4 kts | 270° |
| 2026-04-23 13:32 | 47.43557 | 19.26520 | 456 ft | 4 kts | 303° |
| 2026-04-23 13:32 | 47.43541 | 19.26552 | 456 ft | 4 kts | 313° |
| 2026-04-23 13:32 | 47.43532 | 19.26566 | 456 ft | 0 kts | 312° |
| 2026-04-23 13:35 | 47.43542 | 19.26550 | 456 ft | 6 kts | 312° |
| 2026-04-23 13:35 | 47.43589 | 19.26473 | 458 ft | 13 kts | 312° |
| 2026-04-23 13:35 | 47.43653 | 19.26368 | 458 ft | 14 kts | 310° |
| 2026-04-23 13:35 | 47.43677 | 19.26233 | 458 ft | 15 kts | 269° |
| 2026-04-23 13:36 | 47.43679 | 19.26080 | 457 ft | 15 kts | 285° |
| 2026-04-23 13:36 | 47.43734 | 19.25952 | 455 ft | 14 kts | 279° |
| 2026-04-23 13:36 | 47.43674 | 19.25830 | 457 ft | 16 kts | 223° |
| 2026-04-23 13:36 | 47.43588 | 19.25713 | 457 ft | 18 kts | 222° |
| 2026-04-23 13:37 | 47.43494 | 19.25588 | 457 ft | 19 kts | 222° |
| 2026-04-23 13:37 | 47.43392 | 19.25451 | 457 ft | 20 kts | 222° |
| 2026-04-23 13:37 | 47.43285 | 19.25308 | 457 ft | 21 kts | 222° |
| 2026-04-23 13:37 | 47.43177 | 19.25162 | 456 ft | 22 kts | 222° |
| 2026-04-23 13:38 | 47.43093 | 19.24992 | 457 ft | 20 kts | 270° |
| 2026-04-23 13:38 | 47.43123 | 19.24903 | 457 ft | 0 kts | 312° |
| 2026-04-23 13:39 | 47.43140 | 19.24875 | 456 ft | 21 kts | 312° |
| 2026-04-23 13:39 | 47.43432 | 19.24406 | 452 ft | 101 kts | 312° |
| 2026-04-23 13:39 | 47.44056 | 19.23406 | 511 ft | 155 kts | 313° |
| 2026-04-23 13:39 | 47.44780 | 19.22244 | 1292 ft | 154 kts | 313° |
| 2026-04-23 13:40 | 47.45489 | 19.21092 | 2276 ft | 151 kts | 313° |
| 2026-04-23 13:40 | 47.46226 | 19.19894 | 2880 ft | 168 kts | 313° |
| 2026-04-23 13:40 | 47.47073 | 19.18522 | 3243 ft | 189 kts | 313° |
| 2026-04-23 13:40 | 47.48005 | 19.17007 | 3527 ft | 215 kts | 311° |
| 2026-04-23 13:41 | 47.48845 | 19.15021 | 4023 ft | 238 kts | 294° |
| 2026-04-23 13:41 | 47.49240 | 19.12593 | 4866 ft | 248 kts | 278° |
| 2026-04-23 13:41 | 47.49100 | 19.09996 | 5695 ft | 262 kts | 261° |
| 2026-04-23 13:41 | 47.48325 | 19.07475 | 6476 ft | 280 kts | 239° |
| 2026-04-23 13:42 | 47.46821 | 19.05537 | 7197 ft | 298 kts | 209° |
| 2026-04-23 13:42 | 47.44783 | 19.04826 | 7948 ft | 309 kts | 177° |
| 2026-04-23 13:42 | 47.42679 | 19.05562 | 8747 ft | 312 kts | 158° |
| 2026-04-23 13:42 | 47.40646 | 19.06644 | 9656 ft | 313 kts | 158° |
| 2026-04-23 13:43 | 47.38581 | 19.07759 | 10384 ft | 321 kts | 158° |
| 2026-04-23 13:43 | 47.36406 | 19.08935 | 10639 ft | 345 kts | 158° |
| 2026-04-23 13:43 | 47.34093 | 19.10178 | 11075 ft | 359 kts | 158° |
| 2026-04-23 13:43 | 47.31726 | 19.11430 | 11779 ft | 365 kts | 158° |
| 2026-04-23 13:44 | 47.29322 | 19.12690 | 12526 ft | 369 kts | 158° |
| 2026-04-23 13:44 | 47.26893 | 19.13962 | 13267 ft | 373 kts | 158° |
| 2026-04-23 13:44 | 47.24428 | 19.15251 | 13985 ft | 378 kts | 158° |
| 2026-04-23 13:44 | 47.22782 | 19.16110 | 14413 ft | 380 kts | 158° |
| 2026-04-23 13:45 | 47.20282 | 19.17414 | 15085 ft | 383 kts | 157° |
| 2026-04-23 13:45 | 47.17761 | 19.18734 | 15782 ft | 386 kts | 157° |
| 2026-04-23 13:45 | 47.15223 | 19.20062 | 16473 ft | 389 kts | 157° |
| 2026-04-23 13:45 | 47.12663 | 19.21401 | 17157 ft | 392 kts | 157° |
| 2026-04-23 13:46 | 47.10081 | 19.22745 | 17851 ft | 395 kts | 157° |
| 2026-04-23 13:46 | 47.07483 | 19.24099 | 18501 ft | 398 kts | 157° |
| 2026-04-23 13:46 | 47.04857 | 19.25465 | 19112 ft | 401 kts | 157° |
| 2026-04-23 13:46 | 47.02225 | 19.26832 | 19720 ft | 403 kts | 158° |
| 2026-04-23 13:47 | 46.99566 | 19.28212 | 20334 ft | 406 kts | 158° |
| 2026-04-23 13:47 | 46.96899 | 19.29598 | 20944 ft | 408 kts | 158° |
| 2026-04-23 13:47 | 46.94210 | 19.30994 | 21536 ft | 412 kts | 158° |
| 2026-04-23 13:47 | 46.91500 | 19.32404 | 22105 ft | 415 kts | 158° |
| 2026-04-23 13:48 | 46.88768 | 19.33821 | 22739 ft | 417 kts | 158° |
| 2026-04-23 13:48 | 46.86023 | 19.35235 | 23346 ft | 419 kts | 159° |
| 2026-04-23 13:48 | 46.83261 | 19.36655 | 23866 ft | 422 kts | 159° |
| 2026-04-23 13:48 | 46.80485 | 19.38080 | 24333 ft | 425 kts | 158° |
| 2026-04-23 13:49 | 46.77684 | 19.39519 | 24774 ft | 428 kts | 158° |
| 2026-04-23 13:49 | 46.74867 | 19.40969 | 25228 ft | 430 kts | 158° |
| 2026-04-23 13:49 | 46.72039 | 19.42427 | 25697 ft | 433 kts | 158° |
| 2026-04-23 13:49 | 46.69190 | 19.43896 | 26147 ft | 435 kts | 158° |
| 2026-04-23 13:50 | 46.66328 | 19.45367 | 26596 ft | 438 kts | 158° |
| 2026-04-23 13:50 | 46.63450 | 19.46840 | 27025 ft | 440 kts | 158° |
| 2026-04-23 13:50 | 46.60550 | 19.48322 | 27445 ft | 443 kts | 158° |
| 2026-04-23 13:50 | 46.57631 | 19.49813 | 27876 ft | 445 kts | 158° |
| 2026-04-23 13:51 | 46.54699 | 19.51310 | 28318 ft | 448 kts | 158° |
| 2026-04-23 13:51 | 46.51752 | 19.52810 | 28749 ft | 450 kts | 158° |
| 2026-04-23 13:51 | 46.48792 | 19.54312 | 29158 ft | 452 kts | 158° |
| 2026-04-23 13:51 | 46.45816 | 19.55820 | 29558 ft | 455 kts | 158° |
| 2026-04-23 13:52 | 46.42823 | 19.57335 | 29950 ft | 457 kts | 158° |
| 2026-04-23 13:52 | 46.39814 | 19.58863 | 30300 ft | 459 kts | 158° |
| 2026-04-23 13:52 | 46.36794 | 19.60401 | 30619 ft | 462 kts | 158° |
| 2026-04-23 13:52 | 46.33750 | 19.61948 | 30953 ft | 464 kts | 158° |
| 2026-04-23 13:53 | 46.30699 | 19.63498 | 31278 ft | 466 kts | 158° |
| 2026-04-23 13:53 | 46.27626 | 19.65053 | 31625 ft | 468 kts | 158° |
| 2026-04-23 13:53 | 46.24559 | 19.66598 | 32096 ft | 466 kts | 158° |
| 2026-04-23 13:53 | 46.21475 | 19.68046 | 32534 ft | 467 kts | 162° |
| 2026-04-23 13:54 | 46.18270 | 19.68907 | 32921 ft | 471 kts | 171° |
| 2026-04-23 13:54 | 46.11784 | 19.68607 | 33030 ft | 460 kts | 185° |
| 2026-04-23 13:55 | 46.05476 | 19.67535 | 33035 ft | 454 kts | 184° |
| 2026-04-23 13:55 | 45.99199 | 19.66521 | 33038 ft | 453 kts | 184° |
| 2026-04-23 13:56 | 45.92927 | 19.65524 | 33038 ft | 453 kts | 184° |
| 2026-04-23 13:56 | 45.86661 | 19.64515 | 33042 ft | 453 kts | 184° |
| 2026-04-23 13:57 | 45.80351 | 19.63487 | 33049 ft | 453 kts | 184° |
| 2026-04-23 13:57 | 45.74081 | 19.62473 | 33055 ft | 453 kts | 184° |
| 2026-04-23 13:58 | 45.67817 | 19.61474 | 33056 ft | 453 kts | 184° |
| 2026-04-23 13:58 | 45.61554 | 19.60476 | 33061 ft | 453 kts | 184° |
| 2026-04-23 13:59 | 45.55297 | 19.59464 | 33067 ft | 453 kts | 184° |
| 2026-04-23 13:59 | 45.49030 | 19.58452 | 33070 ft | 453 kts | 184° |
| 2026-04-23 14:00 | 45.43831 | 19.57627 | 33068 ft | 453 kts | 184° |
| 2026-04-23 14:00 | 45.36510 | 19.56470 | 33073 ft | 453 kts | 184° |
| 2026-04-23 14:01 | 45.30318 | 19.55496 | 33078 ft | 453 kts | 184° |
| 2026-04-23 14:01 | 45.24176 | 19.54626 | 33058 ft | 451 kts | 178° |
| 2026-04-23 14:02 | 45.17905 | 19.54685 | 33073 ft | 450 kts | 176° |
| 2026-04-23 14:02 | 45.11661 | 19.54868 | 33087 ft | 450 kts | 175° |
| 2026-04-23 14:03 | 45.05378 | 19.55044 | 33078 ft | 451 kts | 175° |
| 2026-04-23 14:03 | 44.99099 | 19.55189 | 33080 ft | 452 kts | 176° |
| 2026-04-23 14:04 | 44.92847 | 19.55316 | 33081 ft | 452 kts | 176° |
| 2026-04-23 14:04 | 44.86517 | 19.55455 | 33084 ft | 452 kts | 176° |
| 2026-04-23 14:05 | 44.80224 | 19.55599 | 33085 ft | 452 kts | 176° |
| 2026-04-23 14:05 | 44.73934 | 19.55739 | 33089 ft | 452 kts | 176° |
| 2026-04-23 14:06 | 44.67647 | 19.55876 | 33089 ft | 452 kts | 176° |
| 2026-04-23 14:06 | 44.61353 | 19.56009 | 33091 ft | 452 kts | 175° |
| 2026-04-23 14:07 | 44.55064 | 19.56140 | 33113 ft | 452 kts | 175° |
| 2026-04-23 14:07 | 44.45612 | 19.56347 | 33111 ft | 452 kts | 175° |
| 2026-04-23 14:08 | 44.39322 | 19.56486 | 33107 ft | 452 kts | 175° |
| 2026-04-23 14:08 | 44.33028 | 19.56623 | 33111 ft | 452 kts | 175° |
| 2026-04-23 14:09 | 44.26749 | 19.56765 | 33115 ft | 452 kts | 175° |
| 2026-04-23 14:09 | 44.20465 | 19.56895 | 33113 ft | 451 kts | 175° |
| 2026-04-23 14:10 | 44.14174 | 19.57038 | 33102 ft | 451 kts | 175° |
| 2026-04-23 14:10 | 44.07902 | 19.57174 | 33109 ft | 451 kts | 175° |
| 2026-04-23 14:11 | 44.01740 | 19.57296 | 33117 ft | 451 kts | 175° |
| 2026-04-23 14:11 | 43.95404 | 19.57419 | 33107 ft | 451 kts | 174° |
| 2026-04-23 14:12 | 43.89099 | 19.57562 | 33089 ft | 452 kts | 174° |
| 2026-04-23 14:12 | 43.82830 | 19.57700 | 33090 ft | 452 kts | 174° |
| 2026-04-23 14:13 | 43.76545 | 19.57832 | 33095 ft | 452 kts | 174° |
| 2026-04-23 14:13 | 43.70255 | 19.57966 | 33087 ft | 451 kts | 174° |
| 2026-04-23 14:14 | 43.63985 | 19.58097 | 33103 ft | 451 kts | 174° |
| 2026-04-23 14:14 | 43.57711 | 19.58232 | 33093 ft | 451 kts | 174° |
| 2026-04-23 14:15 | 43.51454 | 19.58359 | 33086 ft | 449 kts | 174° |
| 2026-04-23 14:15 | 43.45145 | 19.58485 | 33115 ft | 450 kts | 174° |
| 2026-04-23 14:16 | 43.38927 | 19.58613 | 33112 ft | 450 kts | 174° |
| 2026-04-23 14:16 | 43.32640 | 19.58750 | 33092 ft | 449 kts | 174° |
| 2026-04-23 14:17 | 43.26384 | 19.58888 | 33098 ft | 449 kts | 173° |
| 2026-04-23 14:17 | 43.20139 | 19.59021 | 33093 ft | 449 kts | 173° |
| 2026-04-23 14:18 | 43.13894 | 19.59151 | 33084 ft | 448 kts | 173° |
| 2026-04-23 14:18 | 43.07659 | 19.59278 | 33080 ft | 449 kts | 173° |
| 2026-04-23 14:19 | 43.02426 | 19.59384 | 33078 ft | 449 kts | 173° |
| 2026-04-23 14:19 | 42.96191 | 19.59514 | 33072 ft | 448 kts | 173° |
| 2026-04-23 14:20 | 42.89945 | 19.59645 | 33090 ft | 448 kts | 173° |
| 2026-04-23 14:20 | 42.83702 | 19.59775 | 33079 ft | 448 kts | 173° |
| 2026-04-23 14:21 | 42.77468 | 19.59896 | 33076 ft | 448 kts | 173° |
| 2026-04-23 14:21 | 42.71239 | 19.60021 | 33076 ft | 448 kts | 173° |
| 2026-04-23 14:22 | 42.65040 | 19.60149 | 33071 ft | 447 kts | 173° |
| 2026-04-23 14:22 | 42.58770 | 19.60271 | 33056 ft | 448 kts | 173° |
| 2026-04-23 14:23 | 42.52537 | 19.60397 | 33051 ft | 448 kts | 173° |
| 2026-04-23 14:23 | 42.46348 | 19.60254 | 33061 ft | 450 kts | 176° |
| 2026-04-23 14:24 | 42.40059 | 19.59925 | 33054 ft | 449 kts | 176° |
| 2026-04-23 14:24 | 42.33804 | 19.59619 | 33052 ft | 449 kts | 176° |
| 2026-04-23 14:25 | 42.27572 | 19.59370 | 33054 ft | 447 kts | 175° |
| 2026-04-23 14:25 | 42.21345 | 19.59144 | 33044 ft | 448 kts | 175° |
| 2026-04-23 14:26 | 42.15111 | 19.58897 | 33042 ft | 449 kts | 175° |
| 2026-04-23 14:26 | 42.08877 | 19.58654 | 33048 ft | 447 kts | 175° |
| 2026-04-23 14:27 | 42.02656 | 19.58422 | 33031 ft | 446 kts | 176° |
| 2026-04-23 14:27 | 41.96445 | 19.58185 | 33043 ft | 447 kts | 175° |
| 2026-04-23 14:28 | 41.90175 | 19.57935 | 33064 ft | 448 kts | 175° |
| 2026-04-23 14:28 | 41.83987 | 19.57687 | 33041 ft | 448 kts | 175° |
| 2026-04-23 14:29 | 41.77751 | 19.57447 | 33032 ft | 449 kts | 175° |
| 2026-04-23 14:29 | 41.71508 | 19.57219 | 33049 ft | 449 kts | 175° |
| 2026-04-23 14:30 | 41.65255 | 19.56985 | 33033 ft | 450 kts | 175° |
| 2026-04-23 14:30 | 41.58999 | 19.56747 | 33033 ft | 450 kts | 176° |
| 2026-04-23 14:31 | 41.52733 | 19.56505 | 33052 ft | 450 kts | 176° |
| 2026-04-23 14:31 | 41.46475 | 19.56267 | 33044 ft | 450 kts | 176° |
| 2026-04-23 14:32 | 41.40265 | 19.56035 | 33031 ft | 450 kts | 176° |
| 2026-04-23 14:32 | 41.34005 | 19.55797 | 33030 ft | 449 kts | 176° |
| 2026-04-23 14:33 | 41.27715 | 19.55554 | 33037 ft | 449 kts | 177° |
| 2026-04-23 14:33 | 41.21475 | 19.55317 | 33034 ft | 448 kts | 177° |
| 2026-04-23 14:34 | 41.15301 | 19.55094 | 33021 ft | 448 kts | 177° |
| 2026-04-23 14:34 | 41.08971 | 19.54852 | 33022 ft | 448 kts | 177° |
| 2026-04-23 14:35 | 41.02744 | 19.54615 | 33017 ft | 448 kts | 177° |
| 2026-04-23 14:35 | 40.96520 | 19.54385 | 33017 ft | 447 kts | 177° |
| 2026-04-23 14:36 | 40.90291 | 19.54155 | 33023 ft | 447 kts | 178° |
| 2026-04-23 14:36 | 40.84067 | 19.53927 | 33011 ft | 448 kts | 178° |
| 2026-04-23 14:37 | 40.77839 | 19.53687 | 33012 ft | 448 kts | 178° |
| 2026-04-23 14:37 | 40.71609 | 19.53453 | 33017 ft | 448 kts | 179° |
| 2026-04-23 14:38 | 40.65369 | 19.53227 | 33009 ft | 448 kts | 179° |
| 2026-04-23 14:38 | 40.59144 | 19.53089 | 33001 ft | 446 kts | 174° |
| 2026-04-23 14:39 | 40.53141 | 19.54744 | 32998 ft | 439 kts | 156° |
| 2026-04-23 14:39 | 40.47394 | 19.57487 | 32994 ft | 440 kts | 158° |
| 2026-04-23 14:40 | 40.41624 | 19.60218 | 32978 ft | 441 kts | 158° |
| 2026-04-23 14:40 | 40.35846 | 19.62944 | 32985 ft | 442 kts | 158° |
| 2026-04-23 14:41 | 40.30062 | 19.65675 | 32975 ft | 442 kts | 158° |
| 2026-04-23 14:41 | 40.24263 | 19.68409 | 32965 ft | 443 kts | 159° |
| 2026-04-23 14:42 | 40.18456 | 19.71139 | 32963 ft | 444 kts | 159° |
| 2026-04-23 14:42 | 40.12675 | 19.73852 | 32938 ft | 445 kts | 159° |
| 2026-04-23 14:43 | 40.06800 | 19.76601 | 32952 ft | 446 kts | 159° |
| 2026-04-23 14:43 | 40.00944 | 19.79335 | 32924 ft | 448 kts | 160° |
| 2026-04-23 14:44 | 39.95072 | 19.82083 | 32959 ft | 448 kts | 161° |
| 2026-04-23 14:44 | 39.89203 | 19.84821 | 32963 ft | 448 kts | 161° |
| 2026-04-23 14:45 | 39.83366 | 19.87692 | 32962 ft | 448 kts | 159° |
| 2026-04-23 14:45 | 39.77566 | 19.90670 | 32958 ft | 449 kts | 160° |
| 2026-04-23 14:46 | 39.71750 | 19.93635 | 32953 ft | 449 kts | 160° |
| 2026-04-23 14:46 | 39.65922 | 19.96547 | 32960 ft | 449 kts | 160° |
| 2026-04-23 14:47 | 39.60080 | 19.99455 | 32960 ft | 450 kts | 160° |
| 2026-04-23 14:47 | 39.54239 | 20.02371 | 32942 ft | 450 kts | 161° |
| 2026-04-23 14:48 | 39.48378 | 20.05295 | 32946 ft | 452 kts | 161° |
| 2026-04-23 14:48 | 39.42358 | 20.07368 | 32940 ft | 446 kts | 178° |
| 2026-04-23 14:49 | 39.36182 | 20.07750 | 32941 ft | 444 kts | 181° |
| 2026-04-23 14:49 | 39.30018 | 20.08108 | 32955 ft | 444 kts | 182° |
| 2026-04-23 14:50 | 39.23810 | 20.08479 | 32964 ft | 445 kts | 182° |
| 2026-04-23 14:50 | 39.17645 | 20.08841 | 32970 ft | 444 kts | 182° |
| 2026-04-23 14:51 | 39.11467 | 20.09200 | 32963 ft | 444 kts | 183° |
| 2026-04-23 14:51 | 39.05310 | 20.09555 | 32656 ft | 441 kts | 183° |
| 2026-04-23 14:52 | 39.02248 | 20.09734 | 32393 ft | 439 kts | 183° |
| 2026-04-23 14:52 | 38.99205 | 20.09914 | 32136 ft | 436 kts | 183° |
| 2026-04-23 14:52 | 38.96180 | 20.10094 | 31882 ft | 434 kts | 183° |
| 2026-04-23 14:52 | 38.93174 | 20.10271 | 31627 ft | 431 kts | 184° |
| 2026-04-23 14:53 | 38.90188 | 20.10444 | 31341 ft | 427 kts | 184° |
| 2026-04-23 14:53 | 38.87238 | 20.10611 | 30858 ft | 423 kts | 184° |
| 2026-04-23 14:53 | 38.84302 | 20.10774 | 30388 ft | 420 kts | 184° |
| 2026-04-23 14:53 | 38.81389 | 20.10938 | 29896 ft | 418 kts | 184° |
| 2026-04-23 14:54 | 38.78499 | 20.11102 | 29400 ft | 413 kts | 184° |
| 2026-04-23 14:54 | 38.75648 | 20.11265 | 28958 ft | 408 kts | 184° |
| 2026-04-23 14:54 | 38.72827 | 20.11429 | 28513 ft | 404 kts | 184° |
| 2026-04-23 14:54 | 38.70036 | 20.11592 | 28044 ft | 400 kts | 185° |
| 2026-04-23 14:55 | 38.67278 | 20.11753 | 27659 ft | 394 kts | 186° |
| 2026-04-23 14:55 | 38.64547 | 20.11909 | 27242 ft | 391 kts | 186° |
| 2026-04-23 14:55 | 38.61847 | 20.12058 | 26841 ft | 387 kts | 186° |
| 2026-04-23 14:55 | 38.59164 | 20.12206 | 26446 ft | 384 kts | 186° |
| 2026-04-23 14:56 | 38.56513 | 20.12355 | 26052 ft | 381 kts | 186° |
| 2026-04-23 14:56 | 38.53883 | 20.12506 | 25658 ft | 378 kts | 186° |
| 2026-04-23 14:56 | 38.51240 | 20.12659 | 25265 ft | 375 kts | 186° |
| 2026-04-23 14:56 | 38.48644 | 20.12809 | 24867 ft | 372 kts | 186° |
| 2026-04-23 14:57 | 38.46070 | 20.12958 | 24463 ft | 369 kts | 187° |
| 2026-04-23 14:57 | 38.44344 | 20.13061 | 24212 ft | 367 kts | 186° |
| 2026-04-23 14:57 | 38.41802 | 20.13547 | 23778 ft | 376 kts | 174° |
| 2026-04-23 14:57 | 38.39234 | 20.14719 | 23304 ft | 387 kts | 163° |
| 2026-04-23 14:58 | 38.36798 | 20.16506 | 22837 ft | 389 kts | 156° |
| 2026-04-23 14:58 | 38.34487 | 20.18306 | 22385 ft | 385 kts | 156° |
| 2026-04-23 14:58 | 38.32249 | 20.20032 | 21951 ft | 382 kts | 156° |
| 2026-04-23 14:58 | 38.29966 | 20.21784 | 21492 ft | 380 kts | 156° |
| 2026-04-23 14:59 | 38.27710 | 20.23512 | 21051 ft | 377 kts | 156° |
| 2026-04-23 14:59 | 38.25464 | 20.25230 | 20603 ft | 375 kts | 155° |
| 2026-04-23 14:59 | 38.23233 | 20.26935 | 20135 ft | 373 kts | 155° |
| 2026-04-23 14:59 | 38.21021 | 20.28625 | 19704 ft | 370 kts | 155° |
| 2026-04-23 15:00 | 38.18819 | 20.30306 | 19264 ft | 368 kts | 154° |
| 2026-04-23 15:00 | 38.16630 | 20.31978 | 18833 ft | 366 kts | 154° |
| 2026-04-23 15:00 | 38.14438 | 20.33655 | 18370 ft | 364 kts | 153° |
| 2026-04-23 15:00 | 38.12260 | 20.35320 | 17893 ft | 362 kts | 153° |
| 2026-04-23 15:01 | 38.10137 | 20.36939 | 17457 ft | 359 kts | 153° |
| 2026-04-23 15:01 | 38.08004 | 20.38564 | 17033 ft | 356 kts | 153° |
| 2026-04-23 15:01 | 38.05893 | 20.40173 | 16593 ft | 353 kts | 152° |
| 2026-04-23 15:01 | 38.03797 | 20.41770 | 16152 ft | 350 kts | 152° |
| 2026-04-23 15:02 | 38.01719 | 20.43353 | 15738 ft | 347 kts | 152° |
| 2026-04-23 15:02 | 37.99653 | 20.44928 | 15314 ft | 345 kts | 152° |
| 2026-04-23 15:02 | 37.97607 | 20.46486 | 14882 ft | 343 kts | 152° |
| 2026-04-23 15:02 | 37.95537 | 20.48060 | 14454 ft | 341 kts | 152° |
| 2026-04-23 15:03 | 37.93507 | 20.49600 | 14052 ft | 339 kts | 152° |
| 2026-04-23 15:03 | 37.91491 | 20.51126 | 13627 ft | 338 kts | 152° |
| 2026-04-23 15:03 | 37.89478 | 20.52649 | 13185 ft | 336 kts | 151° |
| 2026-04-23 15:03 | 37.87487 | 20.54157 | 12781 ft | 332 kts | 151° |
| 2026-04-23 15:04 | 37.85512 | 20.55652 | 12377 ft | 329 kts | 151° |
| 2026-04-23 15:04 | 37.83576 | 20.57115 | 11984 ft | 326 kts | 151° |
| 2026-04-23 15:04 | 37.81663 | 20.58563 | 11591 ft | 324 kts | 150° |
| 2026-04-23 15:04 | 37.79739 | 20.60018 | 11202 ft | 321 kts | 150° |
| 2026-04-23 15:05 | 37.77804 | 20.61485 | 10793 ft | 318 kts | 150° |
| 2026-04-23 15:05 | 37.75910 | 20.62919 | 10406 ft | 316 kts | 150° |
| 2026-04-23 15:05 | 37.74031 | 20.64339 | 10034 ft | 313 kts | 150° |
| 2026-04-23 15:05 | 37.72192 | 20.65724 | 9850 ft | 304 kts | 150° |
| 2026-04-23 15:06 | 37.70387 | 20.67080 | 9571 ft | 300 kts | 150° |
| 2026-04-23 15:06 | 37.68597 | 20.68423 | 9184 ft | 298 kts | 150° |
| 2026-04-23 15:06 | 37.66817 | 20.69762 | 8797 ft | 297 kts | 150° |
| 2026-04-23 15:06 | 37.65051 | 20.71093 | 8401 ft | 296 kts | 149° |
| 2026-04-23 15:07 | 37.63283 | 20.72423 | 8014 ft | 295 kts | 150° |
| 2026-04-23 15:07 | 37.61553 | 20.73724 | 7690 ft | 292 kts | 150° |
| 2026-04-23 15:07 | 37.59781 | 20.75056 | 7292 ft | 292 kts | 149° |
| 2026-04-23 15:07 | 37.58001 | 20.76399 | 6542 ft | 304 kts | 148° |
| 2026-04-23 15:08 | 37.56458 | 20.78185 | 6022 ft | 305 kts | 124° |
| 2026-04-23 15:08 | 37.55565 | 20.80521 | 5898 ft | 290 kts | 107° |
| 2026-04-23 15:08 | 37.55028 | 20.82902 | 5678 ft | 274 kts | 102° |
| 2026-04-23 15:09 | 37.54535 | 20.87317 | 5021 ft | 235 kts | 92° |
| 2026-04-23 15:09 | 37.54523 | 20.89310 | 4713 ft | 223 kts | 86° |
| 2026-04-23 15:09 | 37.54636 | 20.91264 | 4402 ft | 218 kts | 82° |
| 2026-04-23 15:09 | 37.54870 | 20.93097 | 4126 ft | 205 kts | 73° |
| 2026-04-23 15:10 | 37.55305 | 20.94109 | 3921 ft | 195 kts | 45° |
| 2026-04-23 15:10 | 37.56843 | 20.94842 | 3583 ft | 175 kts | 351° |
| 2026-04-23 15:10 | 37.57985 | 20.94452 | 3347 ft | 166 kts | 342° |
| 2026-04-23 15:10 | 37.59070 | 20.94055 | 3124 ft | 159 kts | 343° |
| 2026-04-23 15:11 | 37.60114 | 20.93677 | 2898 ft | 154 kts | 343° |
| 2026-04-23 15:11 | 37.61134 | 20.93307 | 2697 ft | 151 kts | 342° |
| 2026-04-23 15:11 | 37.62142 | 20.92939 | 2486 ft | 150 kts | 342° |
| 2026-04-23 15:11 | 37.63139 | 20.92576 | 2267 ft | 149 kts | 341° |
| 2026-04-23 15:12 | 37.64134 | 20.92222 | 2085 ft | 147 kts | 342° |
| 2026-04-23 15:12 | 37.65101 | 20.91889 | 1886 ft | 143 kts | 342° |
| 2026-04-23 15:12 | 37.66051 | 20.91564 | 1702 ft | 140 kts | 342° |
| 2026-04-23 15:12 | 37.66995 | 20.91239 | 1497 ft | 140 kts | 342° |
| 2026-04-23 15:13 | 37.67940 | 20.90913 | 1323 ft | 142 kts | 344° |
| 2026-04-23 15:13 | 37.68888 | 20.90585 | 1131 ft | 141 kts | 344° |
| 2026-04-23 15:13 | 37.69833 | 20.90264 | 1023 ft | 141 kts | 344° |
| 2026-04-23 15:13 | 37.70787 | 20.89985 | 818 ft | 140 kts | 347° |
| 2026-04-23 15:14 | 37.71726 | 20.89703 | 592 ft | 138 kts | 344° |
| 2026-04-23 15:14 | 37.72639 | 20.89333 | 382 ft | 137 kts | 342° |
| 2026-04-23 15:14 | 37.73553 | 20.88992 | 218 ft | 138 kts | 344° |
| 2026-04-23 15:14 | 37.74472 | 20.88658 | 40 ft | 137 kts | 343° |
| 2026-04-23 15:15 | 37.75224 | 20.88378 | 19 ft | 74 kts | 343° |
| 2026-04-23 15:15 | 37.75475 | 20.88306 | 21 ft | 11 kts | 33° |
| 2026-04-23 15:15 | 37.75464 | 20.88399 | 22 ft | 10 kts | 129° |
| 2026-04-23 15:15 | 37.75437 | 20.88449 | 21 ft | 8 kts | 88° |
| 2026-04-23 15:16 | 37.75446 | 20.88496 | 22 ft | 1 kts | 74° |
| 2026-04-23 15:16 | 37.75448 | 20.88506 | 21 ft | 0 kts | 74° |